createdAt,value
2018-12-13T00:02:09.022Z,98608.57
2018-12-13T00:04:37.378Z,98601.84
2018-12-13T00:07:05.750Z,98603.31
2018-12-13T00:09:34.019Z,98599.30
2018-12-13T00:12:02.323Z,98598.02
2018-12-13T00:14:30.681Z,98601.30
2018-12-13T00:16:58.981Z,98603.52
2018-12-13T00:19:27.401Z,98604.42
2018-12-13T00:21:56.180Z,98607.16
2018-12-13T00:24:24.998Z,98608.37
2018-12-13T00:26:53.435Z,98597.00
2018-12-13T00:29:21.912Z,98598.32
2018-12-13T00:31:50.509Z,98596.45
2018-12-13T00:34:18.894Z,98602.98
2018-12-13T00:36:47.391Z,98591.92
2018-12-13T00:39:15.868Z,98589.14
2018-12-13T00:41:44.128Z,98583.42
2018-12-13T00:44:12.548Z,98584.80
2018-12-13T00:46:41.474Z,98580.55
2018-12-13T00:49:09.748Z,98578.30
2018-12-13T00:51:38.254Z,98572.02
2018-12-13T00:54:06.787Z,98574.50
2018-12-13T00:56:35.246Z,98567.79
2018-12-13T00:59:03.666Z,98566.92
2018-12-13T01:01:32.173Z,98565.09
2018-12-13T01:04:00.498Z,98563.92
2018-12-13T01:06:29.111Z,98566.84
2018-12-13T01:08:57.469Z,98569.97
2018-12-13T01:11:25.842Z,98565.63
2018-12-13T01:13:54.534Z,98570.81
2018-12-13T01:16:23.817Z,98569.28
2018-12-13T01:18:52.300Z,98565.98
2018-12-13T01:21:21.073Z,98564.61
2018-12-13T01:23:49.695Z,98555.95
2018-12-13T01:26:17.994Z,98559.07
2018-12-13T01:28:46.286Z,98555.19
2018-12-13T01:31:14.717Z,98558.30
2018-12-13T01:33:43.119Z,98558.22
2018-12-13T01:36:11.384Z,98556.05
2018-12-13T01:38:40.280Z,98552.94
2018-12-13T01:41:08.710Z,98549.00
2018-12-13T01:43:37.016Z,98546.94
2018-12-13T01:46:05.423Z,98545.95
2018-12-13T01:48:33.752Z,98540.37
2018-12-13T01:51:02.028Z,98541.57
2018-12-13T01:53:30.335Z,98540.81
2018-12-13T01:55:58.819Z,98537.12
2018-12-13T01:58:27.355Z,98539.30
2018-12-13T02:00:55.764Z,98527.92
2018-12-13T02:03:24.039Z,98530.27
2018-12-13T02:05:52.526Z,98531.84
2018-12-13T02:08:20.820Z,98529.20
2018-12-13T02:10:49.130Z,98532.66
2018-12-13T02:13:17.443Z,98533.21
2018-12-13T02:15:45.954Z,98524.97
2018-12-13T02:18:14.264Z,98517.81
2018-12-13T02:20:42.715Z,98511.69
2018-12-13T02:23:11.073Z,98517.11
2018-12-13T02:25:39.427Z,98510.92
2018-12-13T02:28:07.851Z,98521.50
2018-12-13T02:30:36.839Z,98518.56
2018-12-13T02:33:05.440Z,98510.12
2018-12-13T02:35:33.964Z,98508.97
2018-12-13T02:38:02.282Z,98506.47
2018-12-13T02:40:30.527Z,98503.39
2018-12-13T02:42:58.804Z,98500.84
2018-12-13T02:45:27.405Z,98500.02
2018-12-13T02:47:55.684Z,98496.12
2018-12-13T02:50:24.267Z,98489.92
2018-12-13T02:52:52.521Z,98492.09
2018-12-13T02:55:20.877Z,98489.65
2018-12-13T02:57:49.248Z,98492.54
2018-12-13T03:00:17.554Z,98489.53
2018-12-13T03:02:45.873Z,98486.31
2018-12-13T03:05:17.353Z,98485.01
2018-12-13T03:07:45.671Z,98483.77
2018-12-13T03:10:14.101Z,98486.64
2018-12-13T03:12:42.416Z,98485.22
2018-12-13T03:15:10.743Z,98485.28
2018-12-13T03:17:39.074Z,98484.59
2018-12-13T03:20:07.635Z,98479.88
2018-12-13T03:22:35.962Z,98475.92
2018-12-13T03:25:04.506Z,98476.28
2018-12-13T03:27:33.027Z,98470.63
2018-12-13T03:30:01.299Z,98467.09
2018-12-13T03:32:29.720Z,98463.78
2018-12-13T03:34:58.371Z,98460.74
2018-12-13T03:37:26.743Z,98460.96
2018-12-13T03:39:55.065Z,98462.80
2018-12-13T03:42:23.417Z,98463.41
2018-12-13T03:44:52.344Z,98455.92
2018-12-13T03:47:20.752Z,98452.97
2018-12-13T03:49:49.063Z,98461.12
2018-12-13T03:52:17.297Z,98449.94
2018-12-13T03:54:45.647Z,98452.95
2018-12-13T03:57:13.967Z,98450.80
2018-12-13T03:59:42.359Z,98445.52
2018-12-13T04:02:10.747Z,98444.16
2018-12-13T04:04:39.001Z,98435.84
2018-12-13T04:07:07.260Z,98436.52
2018-12-13T04:09:35.528Z,98429.89
2018-12-13T04:12:03.868Z,98426.70
2018-12-13T04:14:32.561Z,98424.64
2018-12-13T04:17:01.012Z,98427.77
2018-12-13T04:19:29.308Z,98421.19
2018-12-13T04:22:00.717Z,98418.51
2018-12-13T04:24:29.933Z,98418.84
2018-12-13T04:26:58.279Z,98409.97
2018-12-13T04:29:26.704Z,98404.78
2018-12-13T04:31:55.111Z,98402.73
2018-12-13T04:34:23.588Z,98399.86
2018-12-13T04:36:52.014Z,98401.02
2018-12-13T04:39:20.360Z,98403.46
2018-12-13T04:41:48.644Z,98401.56
2018-12-13T04:44:16.880Z,98402.37
2018-12-13T04:46:45.225Z,98390.48
2018-12-13T04:49:13.517Z,98389.78
2018-12-13T04:51:41.839Z,98385.06
2018-12-13T04:54:10.293Z,98381.42
2018-12-13T04:56:38.772Z,98379.17
2018-12-13T04:59:07.504Z,98378.56
2018-12-13T05:01:35.806Z,98380.78
2018-12-13T05:04:04.422Z,98382.58
2018-12-13T05:06:32.782Z,98379.56
2018-12-13T05:09:02.769Z,98369.79
2018-12-13T05:11:31.271Z,98369.10
2018-12-13T05:13:59.637Z,98373.23
2018-12-13T05:16:28.600Z,98362.99
2018-12-13T05:18:57.466Z,98353.64
2018-12-13T05:21:26.414Z,98354.69
2018-12-13T05:23:54.808Z,98353.93
2018-12-13T05:26:23.111Z,98350.87
2018-12-13T05:28:51.492Z,98351.38
2018-12-13T05:31:19.837Z,98350.14
2018-12-13T05:33:48.226Z,98355.39
2018-12-13T05:36:16.737Z,98350.88
2018-12-13T05:38:45.019Z,98345.59
2018-12-13T05:41:13.402Z,98353.98
2018-12-13T05:43:41.670Z,98348.37
2018-12-13T05:46:09.976Z,98352.14
2018-12-13T05:48:38.250Z,98345.81
2018-12-13T05:51:06.529Z,98349.92
2018-12-13T05:53:34.794Z,98343.91
2018-12-13T05:56:03.082Z,98351.12
2018-12-13T05:58:31.391Z,98355.44
2018-12-13T06:00:59.677Z,98351.81
2018-12-13T06:03:28.105Z,98356.35
2018-12-13T06:05:56.365Z,98351.34
2018-12-13T06:08:24.825Z,98351.28
2018-12-13T06:10:53.472Z,98347.84
2018-12-13T06:13:21.769Z,98350.72
2018-12-13T06:15:50.141Z,98349.13
2018-12-13T06:18:18.429Z,98346.08
2018-12-13T06:20:46.783Z,98342.81
2018-12-13T06:23:15.089Z,98337.47
2018-12-13T06:25:43.383Z,98347.63
2018-12-13T06:28:11.875Z,98344.80
2018-12-13T06:30:40.287Z,98347.56
2018-12-13T06:33:08.595Z,98353.48
2018-12-13T06:35:36.874Z,98347.73
2018-12-13T06:38:05.772Z,98354.64
2018-12-13T06:43:24.606Z,98353.17
2018-12-13T06:45:52.933Z,98351.22
2018-12-13T06:48:21.260Z,98351.00
2018-12-13T06:50:49.563Z,98350.34
2018-12-13T06:53:17.861Z,98346.84
2018-12-13T06:55:46.147Z,98354.73
2018-12-13T06:58:14.417Z,98350.58
2018-12-13T07:00:42.725Z,98345.36
2018-12-13T07:03:11.076Z,98350.86
2018-12-13T07:05:39.383Z,98350.13
2018-12-13T07:08:08.074Z,98345.02
2018-12-13T07:10:36.603Z,98346.37
2018-12-13T07:13:05.255Z,98344.19
2018-12-13T07:15:33.583Z,98349.47
2018-12-13T07:18:01.857Z,98348.91
2018-12-13T07:20:30.314Z,98344.52
2018-12-13T07:22:58.629Z,98345.92
2018-12-13T07:25:27.170Z,98343.93
2018-12-13T07:27:55.690Z,98338.30
2018-12-13T07:30:24.376Z,98339.09
2018-12-13T07:32:52.809Z,98339.34
2018-12-13T07:35:21.130Z,98338.34
2018-12-13T07:37:49.370Z,98339.09
2018-12-13T07:40:17.650Z,98338.17
2018-12-13T07:42:46.159Z,98342.00
2018-12-13T07:45:14.422Z,98342.47
2018-12-13T07:47:42.767Z,98337.80
2018-12-13T07:50:11.039Z,98334.58
2018-12-13T07:52:39.332Z,98340.75
2018-12-13T07:55:07.858Z,98339.09
2018-12-13T07:57:36.205Z,98336.62
2018-12-13T08:00:05.094Z,98342.77
2018-12-13T08:02:33.365Z,98338.09
2018-12-13T08:05:01.682Z,98339.00
2018-12-13T08:07:30.670Z,98339.84
2018-12-13T08:09:58.996Z,98337.58
2018-12-13T08:12:28.310Z,98332.92
2018-12-13T08:14:56.695Z,98325.88
2018-12-13T08:17:25.100Z,98338.20
2018-12-13T08:19:53.466Z,98327.97
2018-12-13T08:22:21.855Z,98328.68
2018-12-13T08:24:50.229Z,98331.00
2018-12-13T08:27:18.497Z,98329.64
2018-12-13T08:29:46.842Z,98322.22
2018-12-13T08:32:15.063Z,98328.59
2018-12-13T08:34:43.451Z,98322.41
2018-12-13T08:37:11.699Z,98324.08
2018-12-13T08:39:40.012Z,98331.22
2018-12-13T08:42:08.389Z,98323.56
2018-12-13T08:44:36.748Z,98324.89
2018-12-13T08:47:05.124Z,98318.97
2018-12-13T08:49:33.390Z,98321.94
2018-12-13T08:52:01.670Z,98321.33
2018-12-13T08:54:29.955Z,98315.80
2018-12-13T08:56:58.212Z,98319.83
2018-12-13T08:59:27.063Z,98322.86
2018-12-13T09:01:55.509Z,98317.00
2018-12-13T09:04:23.755Z,98313.67
2018-12-13T09:06:52.563Z,98314.38
2018-12-13T09:09:21.024Z,98317.20
2018-12-13T09:11:49.459Z,98318.72
2018-12-13T09:14:17.704Z,98323.05
2018-12-13T09:16:46.324Z,98319.27
2018-12-13T09:19:15.354Z,98326.23
2018-12-13T09:21:44.273Z,98327.45
2018-12-13T09:24:12.902Z,98320.47
2018-12-13T09:26:41.264Z,98318.66
2018-12-13T09:29:11.698Z,98314.48
2018-12-13T09:31:40.256Z,98323.63
2018-12-13T09:34:12.061Z,98314.63
2018-12-13T09:36:40.282Z,98324.58
2018-12-13T09:39:08.687Z,98313.52
2018-12-13T09:41:37.010Z,98310.66
2018-12-13T09:44:07.576Z,98308.23
2018-12-13T09:46:35.943Z,98311.08
2018-12-13T09:49:04.223Z,98300.74
2018-12-13T09:51:32.582Z,98304.59
2018-12-13T09:54:00.874Z,98298.61
2018-12-13T09:56:30.174Z,98297.56
2018-12-13T09:58:58.445Z,98287.24
2018-12-13T10:01:26.771Z,98289.94
2018-12-13T10:03:55.049Z,98288.32
2018-12-13T10:06:23.370Z,98280.48
2018-12-13T10:08:51.764Z,98282.23
2018-12-13T10:11:20.034Z,98278.23
2018-12-13T10:13:48.312Z,98275.72
2018-12-13T10:16:16.733Z,98276.25
2018-12-13T10:18:45.265Z,98278.02
2018-12-13T10:21:13.494Z,98275.80
2018-12-13T10:23:41.795Z,98266.72
2018-12-13T10:26:10.044Z,98273.42
2018-12-13T10:28:38.300Z,98270.20
2018-12-13T10:31:06.785Z,98269.98
2018-12-13T10:33:35.042Z,98271.24
2018-12-13T10:36:03.413Z,98271.23
2018-12-13T10:38:31.813Z,98268.06
2018-12-13T10:41:00.303Z,98266.89
2018-12-13T10:43:28.674Z,98254.48
2018-12-13T10:45:56.965Z,98259.42
2018-12-13T10:48:25.478Z,98256.66
2018-12-13T10:50:54.000Z,98254.58
2018-12-13T10:53:23.009Z,98247.23
2018-12-13T10:55:52.778Z,98251.37
2018-12-13T10:58:21.058Z,98245.98
2018-12-13T11:00:54.702Z,98240.65
2018-12-13T11:03:28.883Z,98240.20
2018-12-13T11:05:57.182Z,98243.67
2018-12-13T11:08:25.632Z,98242.97
2018-12-13T11:10:54.026Z,98244.24
2018-12-13T11:13:22.397Z,98238.44
2018-12-13T11:15:50.689Z,98234.25
2018-12-13T11:18:19.011Z,98236.83
2018-12-13T11:20:47.263Z,98229.80
2018-12-13T11:23:15.863Z,98233.49
2018-12-13T11:25:44.272Z,98231.97
2018-12-13T11:28:24.032Z,98222.63
2018-12-13T11:30:52.736Z,98226.67
2018-12-13T11:33:21.112Z,98224.34
2018-12-13T11:35:49.589Z,98224.59
2018-12-13T11:38:18.078Z,98217.09
2018-12-13T11:40:46.669Z,98218.53
2018-12-13T11:43:15.026Z,98214.39
2018-12-13T11:45:43.449Z,98212.52
2018-12-13T11:48:12.045Z,98219.78
2018-12-13T11:50:40.486Z,98218.22
2018-12-13T11:53:08.885Z,98210.55
2018-12-13T11:55:38.574Z,98214.89
2018-12-13T11:58:13.397Z,98208.11
2018-12-13T12:00:41.678Z,98206.28
2018-12-13T12:03:10.132Z,98210.66
2018-12-13T12:05:38.647Z,98216.28
2018-12-13T12:08:07.341Z,98213.30
2018-12-13T12:10:35.813Z,98210.16
2018-12-13T12:13:04.413Z,98207.53
2018-12-13T12:15:32.871Z,98205.17
2018-12-13T12:18:01.248Z,98206.06
2018-12-13T12:20:29.483Z,98210.00
2018-12-13T12:22:57.992Z,98213.31
2018-12-13T12:25:26.314Z,98209.44
2018-12-13T12:27:54.640Z,98206.66
2018-12-13T12:30:23.052Z,98208.88
2018-12-13T12:32:51.397Z,98203.53
2018-12-13T12:35:19.814Z,98212.39
2018-12-13T12:37:48.075Z,98211.83
2018-12-13T12:40:16.402Z,98214.02
2018-12-13T12:42:44.862Z,98204.88
2018-12-13T12:45:13.185Z,98207.91
2018-12-13T12:47:41.612Z,98205.05
2018-12-13T12:50:09.956Z,98206.34
2018-12-13T12:52:38.269Z,98200.95
2018-12-13T12:55:07.040Z,98200.80
2018-12-13T12:57:35.415Z,98201.66
2018-12-13T13:00:04.124Z,98203.27
2018-12-13T13:02:32.814Z,98197.07
2018-12-13T13:05:01.264Z,98201.33
2018-12-13T13:07:29.616Z,98198.42
2018-12-13T13:09:58.068Z,98203.28
2018-12-13T13:12:26.324Z,98198.68
2018-12-13T13:14:54.552Z,98196.34
2018-12-13T13:17:23.101Z,98190.64
2018-12-13T13:19:51.399Z,98198.06
2018-12-13T13:22:19.845Z,98196.00
2018-12-13T13:24:48.203Z,98202.93
2018-12-13T13:27:16.588Z,98192.59
2018-12-13T13:29:44.937Z,98192.74
2018-12-13T13:32:13.393Z,98195.89
2018-12-13T13:34:41.728Z,98189.22
2018-12-13T13:37:09.983Z,98187.20
2018-12-13T13:39:38.266Z,98186.41
2018-12-13T13:42:06.620Z,98182.70
2018-12-13T13:44:37.660Z,98183.31
2018-12-13T13:47:06.575Z,98189.34
2018-12-13T13:49:34.937Z,98183.73
2018-12-13T13:52:03.576Z,98188.98
2018-12-13T13:54:31.956Z,98184.67
2018-12-13T13:57:00.416Z,98181.02
2018-12-13T13:59:29.328Z,98174.21
2018-12-13T14:01:57.700Z,98166.66
2018-12-13T14:04:26.165Z,98169.47
2018-12-13T14:06:55.241Z,98175.92
2018-12-13T14:09:24.054Z,98175.10
2018-12-13T14:11:52.469Z,98179.74
2018-12-13T14:14:20.731Z,98182.03
2018-12-13T14:16:49.057Z,98167.80
2018-12-13T14:19:17.564Z,98179.77
2018-12-13T14:21:45.857Z,98177.32
2018-12-13T14:24:14.193Z,98183.68
2018-12-13T14:26:42.561Z,98179.01
2018-12-13T14:29:10.846Z,98184.70
2018-12-13T14:31:39.418Z,98181.98
2018-12-13T14:34:07.723Z,98187.60
2018-12-13T14:36:36.070Z,98190.08
2018-12-13T14:39:07.233Z,98191.04
2018-12-13T14:41:35.617Z,98195.55
2018-12-13T14:44:03.916Z,98191.99
2018-12-13T14:46:32.137Z,98195.39
2018-12-13T14:49:00.477Z,98197.47
2018-12-13T14:51:29.057Z,98197.50
2018-12-13T14:53:57.446Z,98196.13
2018-12-13T14:56:27.053Z,98196.63
2018-12-13T14:58:55.345Z,98199.41
2018-12-13T15:01:23.678Z,98198.53
2018-12-13T15:03:51.982Z,98204.63
2018-12-13T15:06:20.577Z,98202.11
2018-12-13T15:08:48.815Z,98204.08
2018-12-13T15:11:17.044Z,98204.39
2018-12-13T15:13:48.092Z,98206.64
2018-12-13T15:16:16.928Z,98206.79
2018-12-13T15:18:46.032Z,98202.91
2018-12-13T15:21:14.256Z,98212.06
2018-12-13T15:23:42.534Z,98205.77
2018-12-13T15:26:10.821Z,98202.37
2018-12-13T15:28:39.238Z,98200.34
2018-12-13T15:31:07.570Z,98204.09
2018-12-13T15:33:35.860Z,98206.53
2018-12-13T15:36:04.102Z,98209.69
2018-12-13T15:38:32.419Z,98205.97
2018-12-13T15:41:00.668Z,98204.42
2018-12-13T15:43:28.915Z,98207.86
2018-12-13T15:45:57.170Z,98211.92
2018-12-13T15:48:25.428Z,98216.19
2018-12-13T15:50:53.694Z,98214.97
2018-12-13T15:53:21.989Z,98214.53
2018-12-13T15:55:50.298Z,98209.17
2018-12-13T15:58:18.541Z,98211.83
2018-12-13T16:00:47.229Z,98218.59
2018-12-13T16:06:06.105Z,98219.70
2018-12-13T16:08:35.296Z,98212.20
2018-12-13T16:11:03.629Z,98210.82
2018-12-13T16:13:31.886Z,98214.52
2018-12-13T16:16:00.358Z,98213.48
2018-12-13T16:18:28.669Z,98209.16
2018-12-13T16:20:57.198Z,98214.88
2018-12-13T16:23:25.440Z,98211.09
2018-12-13T16:25:53.687Z,98215.36
2018-12-13T16:28:21.905Z,98214.30
2018-12-13T16:30:50.242Z,98219.97
2018-12-13T16:33:18.852Z,98214.00
2018-12-13T16:35:47.194Z,98214.68
2018-12-13T16:38:15.609Z,98213.94
2018-12-13T16:40:43.872Z,98213.39
2018-12-13T16:43:12.602Z,98215.39
2018-12-13T16:45:42.048Z,98215.16
2018-12-13T16:48:10.425Z,98208.86
2018-12-13T16:53:31.273Z,98211.75
2018-12-13T16:55:59.598Z,98208.18
2018-12-13T16:58:28.022Z,98206.05
2018-12-13T17:00:56.350Z,98203.42
2018-12-13T17:03:37.066Z,98205.97
2018-12-13T17:06:06.284Z,98204.59
2018-12-13T17:08:34.637Z,98205.55
2018-12-13T17:11:03.768Z,98214.00
2018-12-13T17:13:32.621Z,98208.80
2018-12-13T17:16:00.895Z,98212.13
2018-12-13T17:18:29.181Z,98210.66
2018-12-13T17:20:57.442Z,98211.42
2018-12-13T17:23:25.822Z,98209.02
2018-12-13T17:25:54.153Z,98210.82
2018-12-13T17:28:22.446Z,98206.06
2018-12-13T17:30:50.897Z,98213.39
2018-12-13T17:33:19.175Z,98198.52
2018-12-13T17:35:47.428Z,98204.25
2018-12-13T17:38:15.829Z,98198.56
2018-12-13T17:40:44.138Z,98199.27
2018-12-13T17:43:12.468Z,98203.29
2018-12-13T17:45:40.725Z,98203.69
2018-12-13T17:48:10.133Z,98205.74
2018-12-13T17:50:38.424Z,98199.31
2018-12-13T17:53:06.694Z,98203.94
2018-12-13T17:55:35.001Z,98201.89
2018-12-13T17:58:03.269Z,98198.41
2018-12-13T18:00:31.575Z,98194.52
2018-12-13T18:02:59.789Z,98195.52
2018-12-13T18:05:28.037Z,98192.16
2018-12-13T18:07:56.828Z,98191.31
2018-12-13T18:10:29.393Z,98197.89
2018-12-13T18:12:55.778Z,98191.62
2018-12-13T18:15:24.118Z,98191.01
2018-12-13T18:17:52.406Z,98196.21
2018-12-13T18:20:20.677Z,98206.89
2018-12-13T18:22:49.082Z,98207.14
2018-12-13T18:25:17.418Z,98205.39
2018-12-13T18:27:45.671Z,98206.70
2018-12-13T18:30:13.916Z,98200.14
2018-12-13T18:32:42.323Z,98196.10
2018-12-13T18:35:10.594Z,98196.87
2018-12-13T18:37:38.955Z,98193.63
2018-12-13T18:40:07.775Z,98194.80
2018-12-13T18:42:36.154Z,98188.09
2018-12-13T18:45:05.359Z,98197.75
2018-12-13T18:47:33.791Z,98198.78
2018-12-13T18:50:02.157Z,98194.25
2018-12-13T18:52:30.437Z,98200.53
2018-12-13T18:54:58.824Z,98195.97
2018-12-13T18:57:27.164Z,98200.39
2018-12-13T18:59:55.548Z,98197.16
2018-12-13T19:02:23.990Z,98201.73
2018-12-13T19:04:52.292Z,98201.45
2018-12-13T19:07:20.690Z,98204.48
2018-12-13T19:09:49.046Z,98202.37
2018-12-13T19:12:17.280Z,98205.90
2018-12-13T19:14:45.651Z,98207.70
2018-12-13T19:17:14.145Z,98214.70
2018-12-13T19:19:42.446Z,98209.29
2018-12-13T19:22:10.704Z,98208.66
2018-12-13T19:24:38.981Z,98210.64
2018-12-13T19:27:07.414Z,98206.73
2018-12-13T19:29:36.438Z,98213.58
2018-12-13T19:32:04.788Z,98212.72
2018-12-13T19:34:33.155Z,98217.51
2018-12-13T19:37:01.516Z,98218.14
2018-12-13T19:39:29.769Z,98223.77
2018-12-13T19:41:58.097Z,98219.62
2018-12-13T19:44:26.392Z,98214.50
2018-12-13T19:46:54.700Z,98212.83
2018-12-13T19:49:23.112Z,98215.84
2018-12-13T19:51:51.469Z,98221.80
2018-12-13T19:54:19.820Z,98221.24
2018-12-13T19:56:48.117Z,98223.23
2018-12-13T19:59:16.487Z,98230.31
2018-12-13T20:01:44.745Z,98231.61
2018-12-13T20:04:12.989Z,98229.70
2018-12-13T20:06:41.306Z,98229.63
2018-12-13T20:09:09.903Z,98231.84
2018-12-13T20:11:38.188Z,98232.86
2018-12-13T20:14:06.511Z,98226.95
2018-12-13T20:16:34.762Z,98229.29
2018-12-13T20:19:02.995Z,98228.29
2018-12-13T20:21:31.254Z,98227.35
2018-12-13T20:23:59.616Z,98233.80
2018-12-13T20:26:27.950Z,98237.71
2018-12-13T20:28:56.284Z,98234.61
2018-12-13T20:31:24.531Z,98239.02
2018-12-13T20:33:53.057Z,98231.55
2018-12-13T20:36:22.194Z,98238.16
2018-12-13T20:38:50.436Z,98243.28
2018-12-13T20:41:18.798Z,98242.48
2018-12-13T20:43:47.184Z,98246.23
2018-12-13T20:46:15.641Z,98243.80
2018-12-13T20:48:44.266Z,98247.81
2018-12-13T20:51:12.538Z,98246.52
2018-12-13T20:53:40.782Z,98246.16
2018-12-13T20:56:09.136Z,98249.84
2018-12-13T20:58:37.452Z,98254.70
2018-12-13T21:01:05.682Z,98252.08
2018-12-13T21:03:34.258Z,98255.66
2018-12-13T21:06:02.507Z,98258.27
2018-12-13T21:08:30.846Z,98258.20
2018-12-13T21:10:59.350Z,98257.21
2018-12-13T21:13:27.709Z,98271.67
2018-12-13T21:15:56.469Z,98272.20
2018-12-13T21:18:24.718Z,98267.73
2018-12-13T21:20:53.010Z,98264.02
2018-12-13T21:23:21.417Z,98259.00
2018-12-13T21:25:50.346Z,98258.48
2018-12-13T21:28:18.598Z,98261.61
2018-12-13T21:30:46.867Z,98263.67
2018-12-13T21:33:15.733Z,98261.61
2018-12-13T21:35:44.096Z,98261.47
2018-12-13T21:38:12.403Z,98262.64
2018-12-13T21:40:40.912Z,98263.89
2018-12-13T21:43:09.406Z,98268.50
2018-12-13T21:45:37.736Z,98269.42
2018-12-13T21:48:06.018Z,98271.41
2018-12-13T21:50:34.290Z,98275.62
2018-12-13T21:53:02.761Z,98280.51
2018-12-13T21:55:31.164Z,98271.52
2018-12-13T21:57:59.915Z,98278.14
2018-12-13T22:00:28.397Z,98279.97
2018-12-13T22:02:56.710Z,98283.19
2018-12-13T22:05:25.147Z,98277.47
2018-12-13T22:07:54.078Z,98280.92
2018-12-13T22:10:22.503Z,98281.70
2018-12-13T22:12:51.318Z,98280.11
2018-12-13T22:15:19.766Z,98284.73
2018-12-13T22:17:50.337Z,98282.67
2018-12-13T22:20:19.240Z,98283.53
2018-12-13T22:23:03.510Z,98279.89
2018-12-13T22:25:45.242Z,98271.85
2018-12-13T22:28:14.100Z,98271.84
2018-12-13T22:31:32.045Z,98272.78
2018-12-13T22:34:22.239Z,98271.16
2018-12-13T22:36:52.229Z,98269.36
2018-12-13T22:39:22.628Z,98263.08
2018-12-13T22:42:02.148Z,98264.63
2018-12-13T22:45:06.054Z,98275.53
2018-12-13T22:47:36.228Z,98271.34
2018-12-13T22:50:04.781Z,98272.69
2018-12-13T22:52:33.150Z,98283.21
2018-12-13T22:55:24.300Z,98279.30
2018-12-13T22:57:54.149Z,98280.13
2018-12-13T23:00:22.661Z,98289.25
2018-12-13T23:03:21.011Z,98282.87
2018-12-13T23:05:50.807Z,98294.41
2018-12-13T23:08:19.301Z,98293.11
2018-12-13T23:10:52.773Z,98290.33
2018-12-13T23:13:34.582Z,98292.40
2018-12-13T23:16:04.973Z,98286.32
2018-12-13T23:18:33.769Z,98293.03
2018-12-13T23:21:02.114Z,98294.15
2018-12-13T23:23:30.395Z,98299.16
2018-12-13T23:25:58.733Z,98289.75
2018-12-13T23:28:27.078Z,98294.34
2018-12-13T23:30:55.346Z,98300.72
2018-12-13T23:33:23.635Z,98302.28
2018-12-13T23:35:51.899Z,98309.56
2018-12-13T23:38:20.193Z,98299.43
2018-12-13T23:40:48.552Z,98299.45
2018-12-13T23:43:16.838Z,98298.45
2018-12-13T23:45:45.154Z,98296.61
2018-12-13T23:48:13.558Z,98297.66
2018-12-13T23:50:41.858Z,98298.52
2018-12-13T23:53:10.155Z,98298.74
2018-12-13T23:55:38.462Z,98299.73
2018-12-13T23:58:06.897Z,98297.72
